createdAt,value
2019-02-07T00:00:28.706Z,11.47
2019-02-07T00:03:32.686Z,11.70
2019-02-07T00:06:36.559Z,11.97
2019-02-07T00:09:39.956Z,11.23
2019-02-07T00:12:43.504Z,12.53
2019-02-07T00:20:21.441Z,10.97
2019-02-07T00:23:24.932Z,12.97
2019-02-07T00:26:28.500Z,12.27
2019-02-07T00:29:32.250Z,12.60
2019-02-07T00:32:35.709Z,12.00
2019-02-07T00:35:39.108Z,12.70
2019-02-07T00:38:42.787Z,13.53
2019-02-07T00:41:46.215Z,12.57
2019-02-07T00:44:51.443Z,11.80
2019-02-07T00:47:54.964Z,12.13
2019-02-07T00:50:58.365Z,12.63
2019-02-07T00:54:01.697Z,12.63
2019-02-07T00:57:05.573Z,12.57
2019-02-07T01:00:18.841Z,12.43
2019-02-07T01:03:22.301Z,12.87
2019-02-07T01:06:25.809Z,12.37
2019-02-07T01:09:29.244Z,11.43
2019-02-07T01:12:32.709Z,11.40
2019-02-07T01:15:36.213Z,11.93
2019-02-07T01:18:39.507Z,13.00
2019-02-07T01:21:42.912Z,11.77
2019-02-07T01:24:46.344Z,11.77
2019-02-07T01:27:50.205Z,11.80
2019-02-07T01:30:53.747Z,12.80
2019-02-07T01:33:57.225Z,12.33
2019-02-07T01:37:00.528Z,12.07
2019-02-07T01:40:06.934Z,11.43
2019-02-07T01:43:10.396Z,11.83
2019-02-07T01:46:13.792Z,11.80
2019-02-07T01:49:17.446Z,11.53
2019-02-07T01:52:21.209Z,12.13
2019-02-07T01:55:24.545Z,11.13
2019-02-07T01:58:28.112Z,10.57
2019-02-07T02:01:31.716Z,11.80
2019-02-07T02:04:35.217Z,11.07
2019-02-07T02:07:39.029Z,11.10
2019-02-07T02:10:42.841Z,10.40
2019-02-07T02:13:46.240Z,11.23
2019-02-07T02:16:49.536Z,10.90
2019-02-07T02:19:53.032Z,11.13
2019-02-07T02:22:56.540Z,11.23
2019-02-07T02:26:01.073Z,11.77
2019-02-07T02:29:04.769Z,11.23
2019-02-07T02:32:09.404Z,10.23
2019-02-07T02:35:12.900Z,10.43
2019-02-07T02:38:16.509Z,10.83
2019-02-07T02:41:20.012Z,11.20
2019-02-07T02:44:23.820Z,11.00
2019-02-07T02:47:27.677Z,10.17
2019-02-07T02:50:31.172Z,10.33
2019-02-07T02:53:34.637Z,10.77
2019-02-07T02:56:38.280Z,10.60
2019-02-07T02:59:41.741Z,10.33
2019-02-07T03:03:10.353Z,9.27
2019-02-07T03:06:35.949Z,9.60
2019-02-07T03:09:57.416Z,9.30
2019-02-07T03:13:20.253Z,9.10
2019-02-07T03:16:48.836Z,9.73
2019-02-07T03:20:14.693Z,9.40
2019-02-07T03:23:36.001Z,9.80
2019-02-07T03:26:58.700Z,9.93
2019-02-07T03:30:24.317Z,9.17
2019-02-07T03:33:35.125Z,9.93
2019-02-07T03:36:51.132Z,9.17
2019-02-07T03:40:13.841Z,9.53
2019-02-07T03:43:35.633Z,9.87
2019-02-07T03:46:56.000Z,8.97
2019-02-07T03:50:19.889Z,9.20
2019-02-07T03:54:01.064Z,8.57
2019-02-07T03:57:17.800Z,9.13
2019-02-07T04:00:46.297Z,9.97
2019-02-07T04:04:07.632Z,9.00
2019-02-07T04:07:36.198Z,9.43
2019-02-07T04:11:01.856Z,9.50
2019-02-07T04:14:24.583Z,8.90
2019-02-07T04:17:37.852Z,9.40
2019-02-07T04:21:06.053Z,9.83
2019-02-07T04:24:38.068Z,9.17
2019-02-07T04:28:03.474Z,9.40
2019-02-07T04:31:24.786Z,10.10
2019-02-07T04:34:59.478Z,10.37
2019-02-07T04:38:27.990Z,9.70
2019-02-07T04:41:50.684Z,9.07
2019-02-07T04:45:13.330Z,9.07
2019-02-07T04:48:46.602Z,8.67
2019-02-07T04:51:59.784Z,9.47
2019-02-07T04:55:34.605Z,9.17
2019-02-07T04:59:12.365Z,9.37
2019-02-07T05:02:34.948Z,8.87
2019-02-07T05:05:48.714Z,9.07
2019-02-07T05:09:11.448Z,9.07
2019-02-07T05:12:28.745Z,10.00
2019-02-07T05:15:48.894Z,9.80
2019-02-07T05:19:15.897Z,10.03
2019-02-07T05:22:39.824Z,8.60
2019-02-07T05:26:05.577Z,9.43
2019-02-07T05:29:20.633Z,9.33
2019-02-07T05:32:46.485Z,9.50
2019-02-07T05:36:11.857Z,8.53
2019-02-07T05:39:23.451Z,9.50
2019-02-07T05:43:04.145Z,9.10
2019-02-07T05:46:35.896Z,8.77
2019-02-07T05:50:01.469Z,9.03
2019-02-07T05:53:27.165Z,9.30
2019-02-07T05:56:44.597Z,9.13
2019-02-07T06:00:16.389Z,8.73
2019-02-07T06:03:29.800Z,9.57
2019-02-07T06:06:44.648Z,9.47
2019-02-07T06:10:08.522Z,8.53
2019-02-07T06:13:31.097Z,9.57
2019-02-07T06:17:02.654Z,9.30
2019-02-07T06:20:20.236Z,8.97
2019-02-07T06:23:48.934Z,9.43
2019-02-07T06:27:20.752Z,9.00
2019-02-07T06:31:01.724Z,9.53
2019-02-07T06:34:28.381Z,10.17
2019-02-07T06:37:48.407Z,10.73
2019-02-07T06:41:17.066Z,9.40
2019-02-07T06:44:45.608Z,9.73
2019-02-07T06:48:23.350Z,10.17
2019-02-07T06:51:34.236Z,11.17
2019-02-07T06:55:02.913Z,10.80
2019-02-07T06:58:28.484Z,10.70
2019-02-07T07:01:49.917Z,11.10
2019-02-07T07:05:18.585Z,10.47
2019-02-07T07:08:40.222Z,9.90
2019-02-07T07:11:54.541Z,9.20
2019-02-07T07:15:29.724Z,9.13
2019-02-07T07:18:51.069Z,9.23
2019-02-07T07:22:19.698Z,9.17
2019-02-07T07:25:48.938Z,9.87
2019-02-07T07:29:16.400Z,9.87
2019-02-07T07:32:48.064Z,9.23
2019-02-07T07:36:09.453Z,9.40
2019-02-07T07:39:32.251Z,9.00
2019-02-07T07:43:04.478Z,8.67
2019-02-07T07:46:27.272Z,9.83
2019-02-07T07:49:52.936Z,9.50
2019-02-07T07:53:14.273Z,10.53
2019-02-07T07:56:35.142Z,8.17
2019-02-07T08:00:04.489Z,10.07
2019-02-07T08:03:27.185Z,8.53
2019-02-07T08:07:05.550Z,9.13
2019-02-07T08:10:26.684Z,8.73
2019-02-07T08:13:48.182Z,9.13
2019-02-07T08:17:29.460Z,9.57
2019-02-07T08:21:04.300Z,10.23
2019-02-07T08:24:35.895Z,9.23
2019-02-07T08:28:07.732Z,9.07
2019-02-07T08:31:28.961Z,8.97
2019-02-07T08:34:54.592Z,9.67
2019-02-07T08:38:20.250Z,9.67
2019-02-07T08:41:58.352Z,9.27
2019-02-07T08:45:30.152Z,10.13
2019-02-07T08:49:01.009Z,8.87
2019-02-07T08:52:26.262Z,9.13
2019-02-07T08:55:47.653Z,9.63
2019-02-07T08:59:16.426Z,9.27
2019-02-07T09:02:33.909Z,9.10
2019-02-07T09:06:05.849Z,9.73
2019-02-07T09:09:24.281Z,9.73
2019-02-07T09:13:01.877Z,9.40
2019-02-07T09:16:23.432Z,10.30
2019-02-07T09:19:52.129Z,10.17
2019-02-07T09:23:03.085Z,9.47
2019-02-07T09:26:32.234Z,10.03
2019-02-07T09:29:55.161Z,10.10
2019-02-07T09:33:14.512Z,9.30
2019-02-07T09:36:52.725Z,9.77
2019-02-07T09:40:14.092Z,11.10
2019-02-07T09:43:55.120Z,10.30
2019-02-07T09:47:27.083Z,9.03
2019-02-07T09:50:42.626Z,9.10
2019-02-07T09:54:10.261Z,8.87
2019-02-07T09:57:36.224Z,8.67
2019-02-07T10:00:48.533Z,9.03
2019-02-07T10:04:03.672Z,8.40
2019-02-07T10:07:20.893Z,9.00
2019-02-07T10:10:43.176Z,8.57
2019-02-07T10:14:05.112Z,8.60
2019-02-07T10:17:27.904Z,7.13
2019-02-07T10:20:53.571Z,8.67
2019-02-07T10:24:17.736Z,7.10
2019-02-07T10:27:38.850Z,6.83
2019-02-07T10:31:01.289Z,7.27
2019-02-07T10:34:44.481Z,7.47
2019-02-07T10:38:10.084Z,8.78
2019-02-07T10:41:25.668Z,6.97
2019-02-07T10:44:57.474Z,7.08
2019-02-07T10:48:27.525Z,6.72
2019-02-07T10:51:59.345Z,6.60
2019-02-07T10:55:25.541Z,5.83
2019-02-07T10:58:46.336Z,6.37
2019-02-07T11:02:28.149Z,6.20
2019-02-07T11:06:00.158Z,6.05
2019-02-07T11:09:28.202Z,5.05
2019-02-07T11:12:49.521Z,6.78
2019-02-07T11:16:09.432Z,5.62
2019-02-07T11:19:39.920Z,6.12
2019-02-07T11:23:08.960Z,6.90
2019-02-07T11:26:30.272Z,6.40
2019-02-07T11:29:56.237Z,6.58
2019-02-07T11:33:09.756Z,6.40
2019-02-07T11:36:38.392Z,5.17
2019-02-07T11:39:49.444Z,6.85
2019-02-07T11:43:21.311Z,6.53
2019-02-07T11:46:51.280Z,6.50
2019-02-07T11:50:07.104Z,6.70
2019-02-07T11:53:32.420Z,6.10
2019-02-07T11:56:55.092Z,6.58
2019-02-07T12:00:23.760Z,6.15
2019-02-07T12:04:01.590Z,5.60
2019-02-07T12:07:36.449Z,6.85
2019-02-07T12:11:07.968Z,6.72
2019-02-07T12:14:34.717Z,7.20
2019-02-07T12:18:10.454Z,6.65
2019-02-07T12:21:35.853Z,6.72
2019-02-07T12:25:07.480Z,6.30
2019-02-07T12:28:28.300Z,6.70
2019-02-07T12:31:49.824Z,6.10
2019-02-07T12:35:26.517Z,5.97
2019-02-07T12:38:47.789Z,5.73
2019-02-07T12:42:28.592Z,6.75
2019-02-07T12:45:51.030Z,6.45
2019-02-07T12:49:12.385Z,6.87
2019-02-07T12:52:53.483Z,6.40
2019-02-07T12:56:34.718Z,6.33
2019-02-07T13:00:03.899Z,6.12
2019-02-07T13:03:41.627Z,6.58
2019-02-07T13:07:03.260Z,6.70
2019-02-07T13:10:33.445Z,6.25
2019-02-07T13:14:00.457Z,6.63
2019-02-07T13:17:29.413Z,6.83
2019-02-07T13:20:52.178Z,6.60
2019-02-07T13:24:17.703Z,6.47
2019-02-07T13:27:43.566Z,7.22
2019-02-07T13:31:01.247Z,6.97
2019-02-07T13:34:29.940Z,7.28
2019-02-07T13:37:45.817Z,7.28
2019-02-07T13:41:08.638Z,6.78
2019-02-07T13:44:30.069Z,7.35
2019-02-07T13:47:56.020Z,7.17
2019-02-07T13:51:17.257Z,7.33
2019-02-07T13:54:32.948Z,7.28
2019-02-07T13:58:10.436Z,7.20
2019-02-07T14:01:45.292Z,8.03
2019-02-07T14:04:56.060Z,7.33
2019-02-07T14:08:38.198Z,7.17
2019-02-07T14:11:53.696Z,7.30
2019-02-07T14:15:12.309Z,7.70
2019-02-07T14:18:35.473Z,7.40
2019-02-07T14:22:04.924Z,7.97
2019-02-07T14:25:26.922Z,8.00
2019-02-07T14:28:40.970Z,8.03
2019-02-07T14:32:02.408Z,8.03
2019-02-07T14:35:25.333Z,9.30
2019-02-07T14:38:39.437Z,8.00
2019-02-07T14:42:02.133Z,8.97
2019-02-07T14:45:44.808Z,9.63
2019-02-07T14:48:48.272Z,10.37
2019-02-07T14:51:51.564Z,9.20
2019-02-07T14:54:55.064Z,9.33
2019-02-07T14:57:58.468Z,9.20
2019-02-07T15:01:01.868Z,9.47
2019-02-07T15:04:05.677Z,10.37
2019-02-07T15:07:08.972Z,9.20
2019-02-07T15:10:13.608Z,11.57
2019-02-07T15:13:16.901Z,10.23
2019-02-07T15:16:20.446Z,11.13
2019-02-07T15:19:23.944Z,10.20
2019-02-07T15:22:27.409Z,10.53
2019-02-07T15:25:30.852Z,10.73
2019-02-07T15:28:34.212Z,9.37
2019-02-07T15:31:37.852Z,9.83
2019-02-07T15:34:41.452Z,9.97
2019-02-07T15:37:44.925Z,9.97
2019-02-07T15:40:49.069Z,9.60
2019-02-07T15:43:52.679Z,18.55
2019-02-07T15:46:56.040Z,15.50
2019-02-07T15:49:59.889Z,13.03
2019-02-07T15:53:03.650Z,11.37
2019-02-07T15:56:07.100Z,10.70
2019-02-07T15:59:19.296Z,10.50
2019-02-07T16:02:28.718Z,10.27
2019-02-07T16:05:32.249Z,9.57
2019-02-07T16:08:35.608Z,12.00
2019-02-07T16:11:39.055Z,9.97
2019-02-07T16:14:42.713Z,10.80
2019-02-07T16:17:46.248Z,10.50
2019-02-07T16:20:49.994Z,11.10
2019-02-07T16:23:53.658Z,10.33
2019-02-07T16:26:57.239Z,8.97
2019-02-07T16:30:00.651Z,9.80
2019-02-07T16:33:04.344Z,9.83
2019-02-07T16:36:08.101Z,9.13
2019-02-07T16:39:11.449Z,10.43
2019-02-07T16:42:14.788Z,10.37
2019-02-07T16:45:19.617Z,9.40
2019-02-07T16:48:23.089Z,10.03
2019-02-07T16:51:26.688Z,9.07
2019-02-07T16:54:31.109Z,8.10
2019-02-07T16:57:34.518Z,8.73
2019-02-07T17:00:38.264Z,10.43
2019-02-07T17:03:41.725Z,9.20
2019-02-07T17:06:45.228Z,8.33
2019-02-07T17:09:48.726Z,8.60
2019-02-07T17:12:52.029Z,8.80
2019-02-07T17:15:55.360Z,9.37
2019-02-07T17:18:59.837Z,9.00
2019-02-07T17:22:03.428Z,9.53
2019-02-07T17:25:07.921Z,9.20
2019-02-07T17:28:11.460Z,8.40
2019-02-07T17:31:15.989Z,8.63
2019-02-07T17:34:19.389Z,8.80
2019-02-07T17:37:22.785Z,9.20
2019-02-07T17:40:26.531Z,8.97
2019-02-07T17:43:30.001Z,9.43
2019-02-07T17:46:33.500Z,8.13
2019-02-07T17:49:36.796Z,8.13
2019-02-07T17:52:40.301Z,8.70
2019-02-07T17:55:43.757Z,9.40
2019-02-07T17:58:47.532Z,8.87
2019-02-07T18:01:51.113Z,9.17
2019-02-07T18:04:54.404Z,9.50
2019-02-07T18:07:58.221Z,9.67
2019-02-07T18:11:02.070Z,8.93
2019-02-07T18:14:05.642Z,9.20
2019-02-07T18:17:09.340Z,8.90
2019-02-07T18:20:14.132Z,9.60
2019-02-07T18:23:17.713Z,9.13
2019-02-07T18:26:21.492Z,9.37
2019-02-07T18:29:24.894Z,9.77
2019-02-07T18:32:28.393Z,10.43
2019-02-07T18:35:32.297Z,10.13
2019-02-07T18:38:35.806Z,9.47
2019-02-07T18:41:39.308Z,8.67
2019-02-07T18:44:43.008Z,11.47
2019-02-07T18:47:46.556Z,10.40
2019-02-07T18:50:50.591Z,10.97
2019-02-07T18:53:54.321Z,10.50
2019-02-07T18:56:57.737Z,10.90
2019-02-07T19:00:01.389Z,11.80
2019-02-07T19:03:05.370Z,12.23
2019-02-07T19:06:09.839Z,11.07
2019-02-07T19:09:13.393Z,11.10
2019-02-07T19:12:16.942Z,12.13
2019-02-07T19:15:26.337Z,12.03
2019-02-07T19:18:29.933Z,11.70
2019-02-07T19:21:33.476Z,12.23
2019-02-07T19:24:36.836Z,11.47
2019-02-07T19:27:40.377Z,11.93
2019-02-07T19:30:43.957Z,11.13
2019-02-07T19:33:47.389Z,11.90
2019-02-07T19:36:50.888Z,11.87
2019-02-07T19:39:54.356Z,12.00
2019-02-07T19:42:59.436Z,12.73
2019-02-07T19:46:03.928Z,16.57
2019-02-07T19:49:07.532Z,13.47
2019-02-07T19:52:10.961Z,12.13
2019-02-07T19:55:16.594Z,12.43
2019-02-07T19:58:20.121Z,12.63
2019-02-07T20:01:23.732Z,12.23
2019-02-07T20:04:27.385Z,12.03
2019-02-07T20:07:30.821Z,12.53
2019-02-07T20:10:34.190Z,13.20
2019-02-07T20:13:37.833Z,13.53
2019-02-07T20:16:41.294Z,14.37
2019-02-07T20:19:44.692Z,13.87
2019-02-07T20:22:48.545Z,13.83
2019-02-07T20:25:51.904Z,14.87
2019-02-07T20:28:55.321Z,13.70
2019-02-07T20:31:58.748Z,13.20
2019-02-07T20:35:02.208Z,14.33
2019-02-07T20:38:07.176Z,13.63
2019-02-07T20:41:10.742Z,14.60
2019-02-07T20:44:14.144Z,13.80
2019-02-07T20:47:17.788Z,13.57
2019-02-07T20:50:22.698Z,14.40
2019-02-07T20:53:26.021Z,15.13
2019-02-07T20:56:29.584Z,14.33
2019-02-07T20:59:32.993Z,14.90
2019-02-07T21:02:36.524Z,13.77
2019-02-07T21:05:40.318Z,14.83
2019-02-07T21:08:43.909Z,15.20
2019-02-07T21:11:47.300Z,15.30
2019-02-07T21:14:50.908Z,15.17
2019-02-07T21:17:54.450Z,15.70
2019-02-07T21:20:57.813Z,16.47
2019-02-07T21:24:01.245Z,14.30
2019-02-07T21:27:05.837Z,15.10
2019-02-07T21:30:12.640Z,15.53
2019-02-07T21:33:16.134Z,15.87
2019-02-07T21:36:19.419Z,15.30
2019-02-07T21:39:22.820Z,15.70
2019-02-07T21:42:26.257Z,14.80
2019-02-07T21:45:29.825Z,15.23
2019-02-07T21:48:33.439Z,15.47
2019-02-07T21:51:36.824Z,16.00
2019-02-07T21:54:40.740Z,15.33
2019-02-07T21:57:45.716Z,14.60
2019-02-07T22:01:10.375Z,15.27
2019-02-07T22:04:13.672Z,15.23
2019-02-07T22:07:17.068Z,15.63
2019-02-07T22:10:20.880Z,16.60
2019-02-07T22:13:24.384Z,15.30
2019-02-07T22:16:29.076Z,16.97
2019-02-07T22:19:32.720Z,16.10
2019-02-07T22:22:36.156Z,16.23
2019-02-07T22:25:39.726Z,16.60
2019-02-07T22:28:43.635Z,16.40
2019-02-07T22:31:47.036Z,16.13
2019-02-07T22:34:50.544Z,16.73
2019-02-07T22:37:54.285Z,16.30
2019-02-07T22:40:58.778Z,16.43
2019-02-07T22:44:02.295Z,16.20
2019-02-07T22:47:05.784Z,15.40
2019-02-07T22:50:20.755Z,15.90
2019-02-07T22:53:24.255Z,16.53
2019-02-07T22:56:27.340Z,16.30
2019-02-07T22:59:30.740Z,15.37
2019-02-07T23:02:34.136Z,16.10
2019-02-07T23:05:37.540Z,14.60
2019-02-07T23:08:41.040Z,16.10
2019-02-07T23:11:44.347Z,16.53
2019-02-07T23:14:48.085Z,15.67
2019-02-07T23:17:51.552Z,17.60
2019-02-07T23:20:55.084Z,15.60
2019-02-07T23:23:59.003Z,15.63
2019-02-07T23:27:02.476Z,16.37
2019-02-07T23:30:07.745Z,16.70
2019-02-07T23:33:11.518Z,15.63
2019-02-07T23:36:15.056Z,15.07
2019-02-07T23:39:18.457Z,15.33
2019-02-07T23:42:22.440Z,14.97
2019-02-07T23:45:25.768Z,16.33
2019-02-07T23:48:29.233Z,15.13
2019-02-07T23:51:32.636Z,15.10
2019-02-07T23:54:35.954Z,15.20
2019-02-07T23:57:39.539Z,14.60
